Time;durP1;ratioP1;P1;durP2;ratioP2;P2;SDS_P1;SDS_P2;PMS_P1;PMS_P2;Temp;Humidity;BMP_temperature;BMP_pressure;BME280_temperature;BME280_humidity;BME280_pressure;Samples;Min_cycle;Max_cycle;Signal;HPM_P1;HPM_P2
2022/04/20 00:00:19;;;;;;;9.70;4.35;;;;;;;;;;5046421;28;20064;-75
2022/04/20 00:02:45;;;;;;;5.95;3.90;;;;;;;;;;5045042;28;20084;-74
2022/04/20 00:05:10;;;;;;;7.63;3.70;;;;;;;;;;5045642;28;20095;-74
2022/04/20 00:07:35;;;;;;;5.22;3.55;;;;;;;;;;5042676;28;20048;-74
2022/04/20 00:10:01;;;;;;;5.95;3.55;;;;;;;;;;5043645;28;20490;-75
2022/04/20 00:12:26;;;;;;;6.68;3.70;;;;;;;;;;5046412;28;20021;-75
2022/04/20 00:14:52;;;;;;;7.18;3.95;;;;;;;;;;5048542;28;20127;-75
2022/04/20 00:17:17;;;;;;;6.22;3.63;;;;;;;;;;5045327;28;20118;-75
2022/04/20 00:19:43;;;;;;;9.57;3.83;;;;;;;;;;5051390;28;20033;-75
2022/04/20 00:22:08;;;;;;;6.80;3.63;;;;;;;;;;5049061;28;20036;-75
2022/04/20 00:24:33;;;;;;;13.05;3.72;;;;;;;;;;5050502;28;20049;-75
2022/04/20 00:26:59;;;;;;;5.78;3.55;;;;;;;;;;5045672;28;20678;-74
2022/04/20 00:29:24;;;;;;;7.70;4.07;;;;;;;;;;5043683;28;20045;-74
2022/04/20 00:31:50;;;;;;;9.48;4.05;;;;;;;;;;5049548;28;20430;-74
2022/04/20 00:34:16;;;;;;;6.70;3.70;;;;;;;;;;5048515;28;20041;-75
2022/04/20 00:36:41;;;;;;;7.25;4.18;;;;;;;;;;5055244;28;20290;-74
2022/04/20 00:39:06;;;;;;;7.57;3.78;;;;;;;;;;5045704;28;20021;-74
2022/04/20 00:41:32;;;;;;;7.70;3.45;;;;;;;;;;5049110;28;20677;-74
2022/04/20 00:43:59;;;;;;;6.40;3.97;;;;;;;;;;5041877;28;20466;-74
2022/04/20 00:46:26;;;;;;;7.18;4.05;;;;;;;;;;5037636;28;20064;-75
2022/04/20 00:48:52;;;;;;;6.35;3.58;;;;;;;;;;5036739;28;20024;-74
2022/04/20 00:51:18;;;;;;;6.18;3.80;;;;;;;;;;5045958;28;20033;-74
2022/04/20 00:53:43;;;;;;;8.25;3.63;;;;;;;;;;5039042;28;20041;-74
2022/04/20 00:56:09;;;;;;;6.90;3.65;;;;;;;;;;5046665;28;20118;-74
2022/04/20 00:58:36;;;;;;;6.35;3.60;;;;;;;;;;5042366;28;20095;-74
2022/04/20 01:01:02;;;;;;;6.22;4.00;;;;;;;;;;5048666;28;20518;-74
2022/04/20 01:03:27;;;;;;;7.57;4.00;;;;;;;;;;5049027;28;20056;-74
2022/04/20 01:05:52;;;;;;;7.15;4.05;;;;;;;;;;5046909;28;20514;-74
2022/04/20 01:08:18;;;;;;;6.80;3.60;;;;;;;;;;5043069;28;20052;-74
2022/04/20 01:10:43;;;;;;;8.35;4.10;;;;;;;;;;5047767;28;20041;-75
2022/04/20 01:13:10;;;;;;;5.03;3.35;;;;;;;;;;5048440;28;20040;-74
2022/04/20 01:15:35;;;;;;;9.43;3.80;;;;;;;;;;5045469;28;20094;-74
2022/04/20 01:18:12;;;;;;;7.15;3.97;;;;;;;;;;5046892;28;20514;-74
2022/04/20 01:20:38;;;;;;;9.32;4.07;;;;;;;;;;5048596;28;20040;-74
2022/04/20 01:23:03;;;;;;;11.02;4.03;;;;;;;;;;5047644;28;20025;-74
2022/04/20 01:25:29;;;;;;;7.90;4.00;;;;;;;;;;5048382;28;20556;-74
2022/04/20 01:27:54;;;;;;;9.65;3.75;;;;;;;;;;5047711;28;20086;-74
2022/04/20 01:30:19;;;;;;;8.07;4.30;;;;;;;;;;5047153;28;20025;-74
2022/04/20 01:32:45;;;;;;;7.75;3.80;;;;;;;;;;5045838;28;20037;-74
2022/04/20 01:35:10;;;;;;;9.00;4.32;;;;;;;;;;5052484;28;20040;-74
2022/04/20 01:37:35;;;;;;;5.75;3.63;;;;;;;;;;5045681;28;20037;-74
2022/04/20 01:40:01;;;;;;;7.30;3.78;;;;;;;;;;5049093;28;20048;-74
2022/04/20 01:42:26;;;;;;;8.02;3.85;;;;;;;;;;5050143;28;20043;-74
2022/04/20 01:44:52;;;;;;;7.03;4.68;;;;;;;;;;5049489;28;20033;-74
2022/04/20 01:47:17;;;;;;;9.95;3.80;;;;;;;;;;5047829;28;20530;-74
2022/04/20 01:49:42;;;;;;;7.05;3.55;;;;;;;;;;5046804;28;20037;-74
2022/04/20 01:52:08;;;;;;;6.82;3.60;;;;;;;;;;5048314;28;20528;-74
2022/04/20 01:54:33;;;;;;;7.85;3.90;;;;;;;;;;5048825;28;20025;-74
2022/04/20 01:56:58;;;;;;;8.43;4.20;;;;;;;;;;5048663;28;20112;-74
2022/04/20 01:59:24;;;;;;;10.07;3.72;;;;;;;;;;5046057;28;20033;-74
2022/04/20 02:04:34;;;;;;;7.07;3.95;;;;;;;;;;5045695;28;20873;-74
2022/04/20 02:06:59;;;;;;;6.13;4.15;;;;;;;;;;5045190;28;20056;-74
2022/04/20 02:09:25;;;;;;;9.45;4.10;;;;;;;;;;5045297;28;20056;-74
2022/04/20 02:11:50;;;;;;;8.00;4.15;;;;;;;;;;5057808;28;20047;-74
2022/04/20 02:14:16;;;;;;;7.55;4.00;;;;;;;;;;5045759;28;20041;-74
2022/04/20 02:16:41;;;;;;;9.90;4.20;;;;;;;;;;5048216;28;20111;-74
2022/04/20 02:19:06;;;;;;;6.93;4.25;;;;;;;;;;5047643;28;20461;-74
2022/04/20 02:21:32;;;;;;;8.05;4.20;;;;;;;;;;5046196;28;20032;-74
2022/04/20 02:23:57;;;;;;;7.50;3.85;;;;;;;;;;5047529;28;20029;-74
2022/04/20 02:26:22;;;;;;;6.75;3.90;;;;;;;;;;5047614;28;20037;-74
2022/04/20 02:28:48;;;;;;;7.85;4.30;;;;;;;;;;5043569;28;20048;-74
2022/04/20 02:31:14;;;;;;;8.35;4.15;;;;;;;;;;5047725;28;20033;-74
2022/04/20 02:33:40;;;;;;;7.38;4.30;;;;;;;;;;5043596;28;20087;-74
2022/04/20 02:36:05;;;;;;;7.47;3.88;;;;;;;;;;5044958;28;20033;-74
2022/04/20 02:38:31;;;;;;;6.25;3.90;;;;;;;;;;5043088;28;20052;-74
2022/04/20 02:40:56;;;;;;;7.68;3.97;;;;;;;;;;5036056;28;20041;-74
2022/04/20 02:43:22;;;;;;;9.00;3.95;;;;;;;;;;5047013;28;20072;-74
2022/04/20 02:45:47;;;;;;;8.90;4.15;;;;;;;;;;5047746;28;20032;-74
2022/04/20 02:48:14;;;;;;;6.30;3.63;;;;;;;;;;5047371;28;20033;-74
2022/04/20 02:50:39;;;;;;;6.70;3.92;;;;;;;;;;5044743;28;20033;-74
2022/04/20 02:53:05;;;;;;;8.45;4.20;;;;;;;;;;5044470;28;20095;-74
2022/04/20 02:55:30;;;;;;;7.25;3.80;;;;;;;;;;5046503;28;20064;-74
2022/04/20 02:57:56;;;;;;;6.68;4.28;;;;;;;;;;5047223;28;20585;-74
2022/04/20 03:00:22;;;;;;;6.68;4.20;;;;;;;;;;5047857;28;20025;-74
2022/04/20 03:02:48;;;;;;;6.57;4.53;;;;;;;;;;5047955;28;20056;-74
2022/04/20 03:05:13;;;;;;;8.02;4.20;;;;;;;;;;5046219;28;20041;-74
2022/04/20 03:07:39;;;;;;;8.43;4.22;;;;;;;;;;5047682;28;20040;-74
2022/04/20 03:10:04;;;;;;;8.00;4.82;;;;;;;;;;5044490;28;20041;-74
2022/04/20 03:12:30;;;;;;;8.15;4.47;;;;;;;;;;5049656;28;20025;-74
2022/04/20 03:14:55;;;;;;;9.38;3.85;;;;;;;;;;5046743;28;20039;-74
2022/04/20 03:17:22;;;;;;;8.45;4.65;;;;;;;;;;5046572;28;20044;-74
2022/04/20 03:19:47;;;;;;;7.07;4.15;;;;;;;;;;5046843;28;20116;-74
2022/04/20 03:22:13;;;;;;;8.95;4.20;;;;;;;;;;5047000;28;20128;-74
2022/04/20 03:24:38;;;;;;;8.38;4.40;;;;;;;;;;5046244;28;20111;-74
2022/04/20 03:27:04;;;;;;;7.88;4.75;;;;;;;;;;5047526;28;20147;-74
2022/04/20 03:29:29;;;;;;;7.30;4.30;;;;;;;;;;5046401;28;20040;-74
2022/04/20 03:31:55;;;;;;;10.65;4.20;;;;;;;;;;5046638;28;20124;-74
2022/04/20 03:34:20;;;;;;;8.43;4.35;;;;;;;;;;5046594;28;20037;-74
2022/04/20 03:36:46;;;;;;;8.68;4.10;;;;;;;;;;5052123;28;20483;-74
2022/04/20 03:39:11;;;;;;;8.73;4.50;;;;;;;;;;5046654;28;20086;-74
2022/04/20 03:41:37;;;;;;;8.63;4.20;;;;;;;;;;5047067;28;20041;-74
2022/04/20 03:44:02;;;;;;;11.55;4.50;;;;;;;;;;5044300;28;20528;-74
2022/04/20 03:46:28;;;;;;;7.97;4.60;;;;;;;;;;5048187;28;21584;-74
2022/04/20 03:48:53;;;;;;;10.43;4.25;;;;;;;;;;5051141;28;20113;-74
2022/04/20 03:51:19;;;;;;;9.18;4.60;;;;;;;;;;5050835;28;20402;-74
2022/04/20 03:53:45;;;;;;;7.65;4.25;;;;;;;;;;5048997;28;20485;-74
2022/04/20 03:56:10;;;;;;;7.93;4.35;;;;;;;;;;5042435;28;20495;-74
2022/04/20 03:58:36;;;;;;;6.45;4.20;;;;;;;;;;5036826;28;20115;-74
2022/04/20 04:01:02;;;;;;;9.10;4.55;;;;;;;;;;5038605;28;20098;-74
2022/04/20 04:03:27;;;;;;;7.68;4.20;;;;;;;;;;5035664;28;20041;-74
2022/04/20 04:05:52;;;;;;;9.68;4.63;;;;;;;;;;5039360;28;20053;-74
2022/04/20 04:08:18;;;;;;;8.18;4.28;;;;;;;;;;5046447;28;20148;-74
2022/04/20 04:10:43;;;;;;;8.88;4.65;;;;;;;;;;5050094;28;20207;-74
2022/04/20 04:13:08;;;;;;;8.98;4.30;;;;;;;;;;5043046;28;20116;-74
2022/04/20 04:15:34;;;;;;;9.52;4.50;;;;;;;;;;5049920;28;20127;-74
2022/04/20 04:17:59;;;;;;;8.07;4.15;;;;;;;;;;5047339;28;20095;-74
2022/04/20 04:20:28;;;;;;;10.48;4.07;;;;;;;;;;5049741;28;20049;-74
2022/04/20 04:22:54;;;;;;;8.40;4.72;;;;;;;;;;5050208;28;20079;-74
2022/04/20 04:25:19;;;;;;;9.35;4.90;;;;;;;;;;5048297;28;20111;-74
2022/04/20 04:27:45;;;;;;;7.82;4.50;;;;;;;;;;5048189;28;20167;-73
2022/04/20 04:30:11;;;;;;;8.30;4.55;;;;;;;;;;5048403;28;20029;-74
2022/04/20 04:32:37;;;;;;;8.00;4.20;;;;;;;;;;5044249;28;20095;-74
2022/04/20 04:35:03;;;;;;;8.32;4.32;;;;;;;;;;5050242;28;20498;-74
2022/04/20 04:37:29;;;;;;;9.02;4.28;;;;;;;;;;5048435;28;20049;-74
2022/04/20 04:39:54;;;;;;;8.27;4.05;;;;;;;;;;5050092;28;20035;-74
2022/04/20 04:42:20;;;;;;;8.18;4.15;;;;;;;;;;5050332;28;20027;-74
2022/04/20 04:44:45;;;;;;;7.25;4.35;;;;;;;;;;5047294;28;20032;-74
2022/04/20 04:49:55;;;;;;;10.23;4.50;;;;;;;;;;5048887;28;20544;-74
2022/04/20 04:52:20;;;;;;;10.00;4.18;;;;;;;;;;5046218;28;20052;-73
2022/04/20 04:54:45;;;;;;;9.00;4.68;;;;;;;;;;5048184;28;20105;-74
2022/04/20 04:57:12;;;;;;;9.45;4.28;;;;;;;;;;5049807;28;20176;-74
2022/04/20 04:59:38;;;;;;;7.72;4.50;;;;;;;;;;5049414;28;20558;-73
2022/04/20 05:02:04;;;;;;;7.05;3.88;;;;;;;;;;5046224;28;20044;-74
2022/04/20 05:04:30;;;;;;;7.82;4.32;;;;;;;;;;5038434;28;20510;-74
2022/04/20 05:06:56;;;;;;;7.10;3.97;;;;;;;;;;5047160;28;20029;-74
2022/04/20 05:09:22;;;;;;;8.40;4.03;;;;;;;;;;5048711;28;20021;-74
2022/04/20 05:11:48;;;;;;;9.13;4.35;;;;;;;;;;5050737;28;20029;-74
2022/04/20 05:14:17;;;;;;;9.48;5.00;;;;;;;;;;5050121;28;20041;-74
2022/04/20 05:16:42;;;;;;;9.90;4.32;;;;;;;;;;5044892;28;20127;-74
2022/04/20 05:19:09;;;;;;;6.95;3.80;;;;;;;;;;5061468;28;20117;-74
2022/04/20 05:21:34;;;;;;;8.07;3.97;;;;;;;;;;5049011;28;20063;-73
2022/04/20 05:23:59;;;;;;;8.35;4.15;;;;;;;;;;5049283;28;20503;-74
2022/04/20 05:26:25;;;;;;;8.02;4.18;;;;;;;;;;5048693;28;20045;-73
2022/04/20 05:28:52;;;;;;;8.80;4.47;;;;;;;;;;5049147;28;20095;-73
2022/04/20 05:31:18;;;;;;;8.32;4.32;;;;;;;;;;5047885;28;20131;-74
2022/04/20 05:33:43;;;;;;;11.70;4.75;;;;;;;;;;5054047;28;20413;-74
2022/04/20 05:36:09;;;;;;;7.30;3.75;;;;;;;;;;5054332;28;20462;-73
2022/04/20 05:44:12;;;;;;;7.40;3.47;;;;;;;;;;5042714;28;20048;-73
2022/04/20 05:46:39;;;;;;;6.28;3.97;;;;;;;;;;5054492;28;20045;-73
2022/04/20 05:49:05;;;;;;;9.45;4.43;;;;;;;;;;5049268;28;20044;-74
2022/04/20 05:51:31;;;;;;;10.82;4.00;;;;;;;;;;5040278;28;20124;-73
2022/04/20 05:53:56;;;;;;;7.18;4.22;;;;;;;;;;5045439;28;20445;-74
2022/04/20 05:56:21;;;;;;;9.57;4.20;;;;;;;;;;5044920;28;20032;-73
2022/04/20 05:58:50;;;;;;;8.43;4.25;;;;;;;;;;5046186;28;20052;-78
2022/04/20 06:01:19;;;;;;;6.13;3.83;;;;;;;;;;5049559;28;20037;-74
2022/04/20 06:03:45;;;;;;;9.60;4.47;;;;;;;;;;5056480;28;20037;-77
2022/04/20 06:06:11;;;;;;;10.38;4.03;;;;;;;;;;5041464;28;20080;-75
2022/04/20 06:08:36;;;;;;;8.38;4.35;;;;;;;;;;5035761;28;20143;-74
2022/04/20 06:11:02;;;;;;;10.50;3.85;;;;;;;;;;5050275;28;20033;-75
2022/04/20 06:13:29;;;;;;;8.18;3.70;;;;;;;;;;5038386;28;20498;-77
2022/04/20 06:15:54;;;;;;;11.27;4.88;;;;;;;;;;5040650;28;20022;-77
2022/04/20 06:18:20;;;;;;;6.55;3.90;;;;;;;;;;5037765;28;20032;-77
2022/04/20 06:20:46;;;;;;;7.32;3.85;;;;;;;;;;5048804;28;20045;-77
2022/04/20 06:23:11;;;;;;;7.05;4.00;;;;;;;;;;5035351;28;20511;-76
2022/04/20 06:25:37;;;;;;;9.02;3.70;;;;;;;;;;5031039;28;20064;-77
2022/04/20 06:28:03;;;;;;;16.00;4.63;;;;;;;;;;5028795;28;20529;-77
2022/04/20 06:30:28;;;;;;;9.93;4.55;;;;;;;;;;5037780;28;20120;-77
2022/04/20 06:32:53;;;;;;;5.25;3.75;;;;;;;;;;5045948;28;20037;-76
2022/04/20 06:35:19;;;;;;;6.13;3.90;;;;;;;;;;5042096;28;20041;-77
2022/04/20 06:37:45;;;;;;;7.05;3.92;;;;;;;;;;5044936;28;20637;-78
2022/04/20 06:40:10;;;;;;;6.82;3.80;;;;;;;;;;5031736;28;21662;-77
2022/04/20 06:42:36;;;;;;;7.95;3.80;;;;;;;;;;5042435;28;20511;-77
2022/04/20 06:45:02;;;;;;;9.85;4.00;;;;;;;;;;5045626;28;20131;-78
2022/04/20 06:47:29;;;;;;;6.32;3.55;;;;;;;;;;5047901;28;20052;-77
2022/04/20 06:49:55;;;;;;;7.05;3.95;;;;;;;;;;5046196;28;20513;-78
2022/04/20 07:00:33;;;;;;;6.50;3.63;;;;;;;;;;5041595;28;20116;-77
2022/04/20 07:03:03;;;;;;;8.20;4.10;;;;;;;;;;5032964;28;20140;-72
2022/04/20 07:05:28;;;;;;;7.20;3.67;;;;;;;;;;5027805;28;20068;-76
2022/04/20 07:07:54;;;;;;;5.43;3.15;;;;;;;;;;5034823;28;20076;-74
2022/04/20 07:10:19;;;;;;;11.75;3.83;;;;;;;;;;5043367;28;20037;-72
2022/04/20 07:12:45;;;;;;;8.20;3.63;;;;;;;;;;5031256;28;20052;-71
2022/04/20 07:15:10;;;;;;;8.23;3.80;;;;;;;;;;5041705;28;20020;-72
2022/04/20 07:17:35;;;;;;;7.05;3.72;;;;;;;;;;5037342;28;20461;-77
2022/04/20 07:20:01;;;;;;;7.80;4.07;;;;;;;;;;5031209;28;20504;-72
2022/04/20 07:22:27;;;;;;;6.60;3.40;;;;;;;;;;5033439;28;20060;-75
2022/04/20 07:24:52;;;;;;;7.40;3.88;;;;;;;;;;5023341;28;20140;-75
2022/04/20 07:27:18;;;;;;;5.28;3.30;;;;;;;;;;5040606;28;20029;-75
2022/04/20 07:29:43;;;;;;;9.95;4.03;;;;;;;;;;5037768;28;20047;-73
2022/04/20 07:32:09;;;;;;;6.25;3.42;;;;;;;;;;5031141;28;20467;-74
2022/04/20 07:34:34;;;;;;;7.97;3.67;;;;;;;;;;5041755;28;20025;-73
2022/04/20 07:36:59;;;;;;;5.03;3.40;;;;;;;;;;5044835;28;20024;-75
2022/04/20 07:39:25;;;;;;;7.78;3.53;;;;;;;;;;5045718;28;20036;-77
2022/04/20 07:41:50;;;;;;;5.95;3.15;;;;;;;;;;5042858;28;20049;-77
2022/04/20 07:44:15;;;;;;;8.27;3.53;;;;;;;;;;5044381;28;20045;-74
2022/04/20 07:46:41;;;;;;;9.05;3.65;;;;;;;;;;5041292;28;20134;-73
2022/04/20 07:50:18;;;;;;;5.90;3.58;;;;;;;;;;5033483;28;20041;-75
2022/04/20 07:51:51;;;;;;;6.30;3.78;;;;;;;;;;5035969;28;20519;-70
2022/04/20 07:54:16;;;;;;;6.05;3.33;;;;;;;;;;5035518;28;20029;-74
2022/04/20 07:56:42;;;;;;;6.57;3.50;;;;;;;;;;5042100;28;20041;-75
2022/04/20 07:59:07;;;;;;;5.63;3.10;;;;;;;;;;5041805;28;20052;-74
2022/04/20 08:01:33;;;;;;;14.30;3.35;;;;;;;;;;5042900;28;20207;-74
2022/04/20 08:03:58;;;;;;;6.90;2.88;;;;;;;;;;5043852;28;20051;-73
2022/04/20 08:06:24;;;;;;;6.57;3.60;;;;;;;;;;5041085;28;20029;-74
2022/04/20 08:08:49;;;;;;;5.30;3.10;;;;;;;;;;5051430;28;20051;-74
2022/04/20 08:11:14;;;;;;;7.88;3.55;;;;;;;;;;5052727;28;20041;-73
2022/04/20 08:16:24;;;;;;;6.00;3.38;;;;;;;;;;5029774;28;20095;-74
2022/04/20 08:18:49;;;;;;;6.97;3.13;;;;;;;;;;5041344;28;20041;-74
2022/04/20 08:21:15;;;;;;;6.35;3.70;;;;;;;;;;5044772;28;20067;-74
2022/04/20 08:23:40;;;;;;;7.22;4.10;;;;;;;;;;5040107;28;20028;-75
2022/04/20 08:26:05;;;;;;;12.15;3.75;;;;;;;;;;5043366;28;20136;-72
2022/04/20 08:28:31;;;;;;;8.48;3.50;;;;;;;;;;5055745;28;20037;-72
2022/04/20 08:30:56;;;;;;;5.13;3.10;;;;;;;;;;5042106;28;20087;-78
2022/04/20 08:33:21;;;;;;;8.80;3.78;;;;;;;;;;5047370;28;20422;-76
2022/04/20 08:35:47;;;;;;;9.52;3.63;;;;;;;;;;5047740;28;20044;-74
2022/04/20 08:38:13;;;;;;;6.95;3.90;;;;;;;;;;5039210;28;20049;-71
2022/04/20 08:40:39;;;;;;;6.68;3.30;;;;;;;;;;5039092;28;20042;-73
2022/04/20 08:43:05;;;;;;;6.28;3.70;;;;;;;;;;5037334;28;20041;-71
2022/04/20 08:45:33;;;;;;;9.07;4.07;;;;;;;;;;5042269;28;20028;-73
2022/04/20 08:47:59;;;;;;;6.45;3.75;;;;;;;;;;5028760;28;20059;-71
2022/04/20 08:50:25;;;;;;;9.43;3.92;;;;;;;;;;5034286;28;20045;-69
2022/04/20 08:52:52;;;;;;;6.15;3.90;;;;;;;;;;5032909;28;20049;-69
2022/04/20 08:55:18;;;;;;;5.55;3.72;;;;;;;;;;5046796;28;20037;-69
2022/04/20 08:57:48;;;;;;;7.22;3.70;;;;;;;;;;5046640;28;20036;-68
2022/04/20 09:00:22;;;;;;;6.15;3.63;;;;;;;;;;5048056;28;20037;-69
2022/04/20 09:03:06;;;;;;;5.45;3.22;;;;;;;;;;5043186;28;20057;-69
2022/04/20 09:05:35;;;;;;;;;;;;;;;;;;5047144;28;20033;-69
2022/04/20 09:08:11;;;;;;;5.03;3.42;;;;;;;;;;5038688;28;19925;-69
2022/04/20 09:10:37;;;;;;;6.47;3.75;;;;;;;;;;5044034;28;20045;-68
2022/04/20 09:13:04;;;;;;;6.65;3.67;;;;;;;;;;5043554;28;20044;-68
2022/04/20 09:15:32;;;;;;;5.85;3.50;;;;;;;;;;5054735;28;20039;-68
2022/04/20 09:17:58;;;;;;;5.63;3.65;;;;;;;;;;5043629;28;20129;-68
2022/04/20 09:20:23;;;;;;;14.35;4.10;;;;;;;;;;5044233;28;20045;-71
2022/04/20 09:23:09;;;;;;;7.00;3.88;;;;;;;;;;5044354;28;20051;-69
2022/04/20 09:25:37;;;;;;;5.97;4.10;;;;;;;;;;5046234;28;20072;-69
2022/04/20 09:28:04;;;;;;;5.80;3.80;;;;;;;;;;5046657;28;20554;-69
2022/04/20 09:30:35;;;;;;;9.20;5.65;;;;;;;;;;5048185;28;20108;-72
2022/04/20 09:33:02;;;;;;;10.10;4.25;;;;;;;;;;5042703;28;20510;-72
2022/04/20 09:35:28;;;;;;;7.22;3.95;;;;;;;;;;5046580;28;20052;-72
2022/04/20 09:38:05;;;;;;;7.53;3.90;;;;;;;;;;5042752;28;20422;-73
2022/04/20 09:40:33;;;;;;;6.50;4.00;;;;;;;;;;5038875;28;20183;-72
2022/04/20 09:43:12;;;;;;;7.30;4.10;;;;;;;;;;5037946;28;20032;-72
2022/04/20 09:45:38;;;;;;;8.00;3.95;;;;;;;;;;5041402;28;20059;-72
2022/04/20 09:51:12;;;;;;;5.03;3.60;;;;;;;;;;5041944;28;20195;-72
2022/04/20 09:53:40;;;;;;;5.15;3.92;;;;;;;;;;5045355;28;20041;-72
2022/04/20 09:56:27;;;;;;;6.82;4.32;;;;;;;;;;5042192;28;20029;-71
2022/04/20 09:58:59;;;;;;;6.95;3.78;;;;;;;;;;5041478;28;20037;-71
2022/04/20 10:01:29;;;;;;;7.20;4.60;;;;;;;;;;5042360;28;20087;-72
2022/04/20 10:03:55;;;;;;;17.10;8.98;;;;;;;;;;5036390;28;20313;-71
2022/04/20 10:06:21;;;;;;;11.30;4.13;;;;;;;;;;5043038;28;20036;-71
2022/04/20 10:08:47;;;;;;;6.68;3.92;;;;;;;;;;5045474;28;20051;-72
2022/04/20 10:11:14;;;;;;;5.65;3.53;;;;;;;;;;5045799;28;20037;-72
2022/04/20 10:13:40;;;;;;;9.80;3.40;;;;;;;;;;5046433;28;20510;-72
2022/04/20 10:16:09;;;;;;;5.18;3.70;;;;;;;;;;5048330;28;20037;-72
2022/04/20 10:18:38;;;;;;;7.97;3.33;;;;;;;;;;5042592;28;20033;-71
2022/04/20 10:21:12;;;;;;;6.38;2.95;;;;;;;;;;5036760;28;20334;-72
2022/04/20 10:23:45;;;;;;;7.10;3.22;;;;;;;;;;5029280;28;20287;-71
2022/04/20 10:26:11;;;;;;;;;;;;;;;;;;5032707;28;20742;-72
2022/04/20 10:29:04;;;;;;;5.78;3.08;;;;;;;;;;5040222;28;20286;-71
2022/04/20 10:31:44;;;;;;;5.85;3.35;;;;;;;;;;5031152;28;20071;-72
2022/04/20 10:34:15;;;;;;;6.78;3.50;;;;;;;;;;5030700;28;20559;-73
2022/04/20 10:36:55;;;;;;;5.05;3.40;;;;;;;;;;5035390;28;20041;-73
2022/04/20 10:39:22;;;;;;;5.05;3.10;;;;;;;;;;5041901;28;20048;-72
2022/04/20 10:42:13;;;;;;;5.40;3.28;;;;;;;;;;5046014;28;20122;-72
2022/04/20 10:45:03;;;;;;;5.22;3.20;;;;;;;;;;5042184;28;20091;-72
2022/04/20 10:47:55;;;;;;;8.43;4.18;;;;;;;;;;5037586;28;20422;-70
2022/04/20 10:50:28;;;;;;;7.03;3.42;;;;;;;;;;5032338;28;20049;-70
2022/04/20 10:53:08;;;;;;;6.80;4.40;;;;;;;;;;5037437;28;20045;-70
2022/04/20 10:55:33;;;;;;;10.65;3.33;;;;;;;;;;5031164;28;20045;-70
2022/04/20 10:58:04;;;;;;;6.57;3.80;;;;;;;;;;5036506;28;20035;-70
2022/04/20 11:00:36;;;;;;;4.80;3.60;;;;;;;;;;5045002;28;20059;-70
2022/04/20 11:03:06;;;;;;;4.75;3.42;;;;;;;;;;5044906;28;20041;-70
2022/04/20 11:05:48;;;;;;;5.28;3.33;;;;;;;;;;5044621;28;20614;-70
2022/04/20 11:08:14;;;;;;;6.95;3.30;;;;;;;;;;5044609;28;20045;-70
2022/04/20 11:10:42;;;;;;;5.53;3.08;;;;;;;;;;5039479;28;20041;-71
2022/04/20 11:19:02;;;;;;;4.35;2.97;;;;;;;;;;5039397;28;20112;-70
2022/04/20 11:21:28;;;;;;;;;;;;;;;;;;5036990;28;20032;-70
2022/04/20 11:24:05;;;;;;;6.57;3.67;;;;;;;;;;5028635;28;19916;-70
2022/04/20 11:26:35;;;;;;;5.13;3.25;;;;;;;;;;5035406;28;20040;-70
2022/04/20 11:29:11;;;;;;;4.95;3.08;;;;;;;;;;5039727;28;20527;-70
2022/04/20 11:31:40;;;;;;;6.25;3.63;;;;;;;;;;5042067;28;20033;-70
2022/04/20 11:34:06;;;;;;;9.30;3.90;;;;;;;;;;5044518;28;20028;-70
2022/04/20 11:36:31;;;;;;;6.05;3.70;;;;;;;;;;5045515;28;20033;-70
2022/04/20 11:38:57;;;;;;;8.73;4.05;;;;;;;;;;5044145;28;20044;-70
2022/04/20 11:41:23;;;;;;;7.07;3.92;;;;;;;;;;5042092;28;20040;-70
2022/04/20 11:43:49;;;;;;;5.47;4.20;;;;;;;;;;5044458;28;20498;-70
2022/04/20 11:46:16;;;;;;;6.25;4.10;;;;;;;;;;5038863;28;20068;-70
2022/04/20 11:48:54;;;;;;;10.18;4.25;;;;;;;;;;5043158;28;20704;-70
2022/04/20 11:51:23;;;;;;;8.70;4.20;;;;;;;;;;5041558;28;20049;-70
2022/04/20 11:53:49;;;;;;;6.65;3.90;;;;;;;;;;5046753;28;20037;-71
2022/04/20 11:56:15;;;;;;;5.28;3.72;;;;;;;;;;5048556;28;20041;-70
2022/04/20 11:58:46;;;;;;;5.93;3.88;;;;;;;;;;5029912;28;20052;-71
2022/04/20 12:01:11;;;;;;;7.45;4.05;;;;;;;;;;5043501;28;20055;-70
2022/04/20 12:03:42;;;;;;;5.97;3.75;;;;;;;;;;5040404;28;20045;-70
2022/04/20 12:06:10;;;;;;;5.22;3.67;;;;;;;;;;5040634;28;20425;-70
2022/04/20 12:08:40;;;;;;;7.40;3.65;;;;;;;;;;5045162;28;20048;-69
2022/04/20 12:11:07;;;;;;;8.57;3.53;;;;;;;;;;5039844;28;20042;-70
2022/04/20 12:13:33;;;;;;;8.13;3.83;;;;;;;;;;5046114;28;20187;-70
2022/04/20 12:16:11;;;;;;;7.82;3.50;;;;;;;;;;5049372;28;20641;-73
2022/04/20 12:18:40;;;;;;;4.82;3.70;;;;;;;;;;5053813;28;20086;-73
2022/04/20 12:21:26;;;;;;;5.55;3.88;;;;;;;;;;5045060;28;20131;-73
2022/04/20 12:23:52;;;;;;;10.38;4.07;;;;;;;;;;5043480;28;20033;-72
2022/04/20 12:26:26;;;;;;;5.55;3.65;;;;;;;;;;5047334;28;20068;-72
2022/04/20 12:28:58;;;;;;;5.28;3.60;;;;;;;;;;5050561;28;20041;-71
2022/04/20 12:31:23;;;;;;;5.90;3.58;;;;;;;;;;5045293;28;20040;-68
2022/04/20 12:34:02;;;;;;;5.53;3.58;;;;;;;;;;5046944;28;20037;-70
2022/04/20 12:36:29;;;;;;;5.15;3.42;;;;;;;;;;5046525;28;20017;-72
2022/04/20 12:38:55;;;;;;;5.57;3.70;;;;;;;;;;5051128;28;20123;-71
2022/04/20 12:41:37;;;;;;;5.63;4.00;;;;;;;;;;5048266;28;20132;-71
2022/04/20 12:44:33;;;;;;;6.63;4.03;;;;;;;;;;5045971;28;20083;-71
2022/04/20 12:46:58;;;;;;;8.25;4.47;;;;;;;;;;5042441;28;20033;-70
2022/04/20 12:49:27;;;;;;;5.57;3.80;;;;;;;;;;5045468;28;20112;-71
2022/04/20 12:51:53;;;;;;;6.80;3.85;;;;;;;;;;5045964;28;20729;-71
2022/04/20 12:54:25;;;;;;;6.45;4.13;;;;;;;;;;5044835;28;20108;-72
2022/04/20 13:02:19;;;;;;;8.20;3.92;;;;;;;;;;5048312;28;20044;-70
2022/04/20 13:04:48;;;;;;;8.05;3.88;;;;;;;;;;5046708;28;20040;-70
2022/04/20 13:07:13;;;;;;;6.28;3.78;;;;;;;;;;5033924;28;20072;-71
2022/04/20 13:09:39;;;;;;;5.88;3.67;;;;;;;;;;5035966;28;20514;-71
2022/04/20 13:12:05;;;;;;;5.63;3.83;;;;;;;;;;5041355;28;20037;-73
2022/04/20 13:14:31;;;;;;;5.47;3.78;;;;;;;;;;5043456;28;20029;-74
2022/04/20 13:16:57;;;;;;;6.88;4.10;;;;;;;;;;5033141;28;20075;-73
2022/04/20 13:19:22;;;;;;;6.30;3.90;;;;;;;;;;5041767;28;20037;-73
2022/04/20 13:21:47;;;;;;;6.45;3.97;;;;;;;;;;5036505;28;20479;-72
2022/04/20 13:24:13;;;;;;;6.57;4.53;;;;;;;;;;5043826;28;20031;-73
2022/04/20 13:29:23;;;;;;;10.15;4.60;;;;;;;;;;5042805;28;20132;-71
2022/04/20 13:31:48;;;;;;;7.40;4.20;;;;;;;;;;5046047;28;20108;-73
2022/04/20 13:34:14;;;;;;;5.35;3.70;;;;;;;;;;5041610;28;20032;-72
2022/04/20 13:36:40;;;;;;;7.03;4.35;;;;;;;;;;5048941;28;20017;-72
2022/04/20 13:39:06;;;;;;;6.13;3.90;;;;;;;;;;5044540;28;20033;-73
2022/04/20 13:41:31;;;;;;;6.47;3.80;;;;;;;;;;5042189;28;20029;-76
2022/04/20 13:43:57;;;;;;;9.82;3.60;;;;;;;;;;5039239;28;20033;-72
2022/04/20 13:46:23;;;;;;;7.25;4.40;;;;;;;;;;5042116;28;20041;-74
2022/04/20 13:48:48;;;;;;;10.15;4.50;;;;;;;;;;5039751;28;20567;-72
2022/04/20 13:51:14;;;;;;;6.45;4.60;;;;;;;;;;5043060;28;20040;-71
2022/04/20 13:53:39;;;;;;;6.47;4.30;;;;;;;;;;5037972;28;20454;-71
2022/04/20 13:56:05;;;;;;;14.75;6.63;;;;;;;;;;5042361;28;20041;-71
2022/04/20 13:58:31;;;;;;;11.15;4.38;;;;;;;;;;5040032;28;20134;-71
2022/04/20 14:00:56;;;;;;;9.45;4.57;;;;;;;;;;5037569;28;20060;-72
2022/04/20 14:03:23;;;;;;;7.35;3.97;;;;;;;;;;5042150;28;20137;-73
2022/04/20 14:05:49;;;;;;;7.22;4.20;;;;;;;;;;5041809;28;20506;-73
2022/04/20 14:08:14;;;;;;;5.85;4.03;;;;;;;;;;5044336;28;20048;-73
2022/04/20 14:10:40;;;;;;;7.55;4.38;;;;;;;;;;5044200;28;20059;-73
2022/04/20 14:13:06;;;;;;;5.95;4.43;;;;;;;;;;5034283;28;20052;-71
2022/04/20 14:15:31;;;;;;;5.65;3.30;;;;;;;;;;5042616;28;20020;-72
2022/04/20 14:17:57;;;;;;;6.22;4.30;;;;;;;;;;5042744;28;20044;-72
2022/04/20 14:20:22;;;;;;;6.28;4.13;;;;;;;;;;5040710;28;20044;-72
2022/04/20 14:22:48;;;;;;;7.65;3.97;;;;;;;;;;5043716;28;20029;-72
2022/04/20 14:33:27;;;;;;;7.07;4.25;;;;;;;;;;5045859;28;20735;-70
2022/04/20 14:35:52;;;;;;;7.28;3.90;;;;;;;;;;5039887;28;20120;-70
2022/04/20 14:38:18;;;;;;;6.13;4.03;;;;;;;;;;5040383;28;20137;-69
2022/04/20 14:40:43;;;;;;;6.65;3.95;;;;;;;;;;5035321;28;20076;-71
2022/04/20 14:43:09;;;;;;;5.57;3.78;;;;;;;;;;5040652;28;20060;-71
2022/04/20 14:45:34;;;;;;;7.07;3.67;;;;;;;;;;5040871;28;20072;-71
2022/04/20 14:48:01;;;;;;;14.93;4.00;;;;;;;;;;5041995;28;20493;-71
2022/04/20 14:50:26;;;;;;;9.82;4.20;;;;;;;;;;5042196;28;20048;-71
2022/04/20 14:52:52;;;;;;;7.85;4.20;;;;;;;;;;5044159;28;20037;-71
2022/04/20 14:55:17;;;;;;;6.78;4.25;;;;;;;;;;5045738;28;20108;-71
2022/04/20 14:57:43;;;;;;;8.35;4.00;;;;;;;;;;5046138;28;20026;-71
2022/04/20 15:00:11;;;;;;;6.13;3.70;;;;;;;;;;5043586;28;20565;-71
2022/04/20 15:02:38;;;;;;;7.40;4.32;;;;;;;;;;5045413;28;20036;-71
2022/04/20 15:05:04;;;;;;;7.60;4.43;;;;;;;;;;5044772;28;20040;-71
2022/04/20 15:07:29;;;;;;;7.97;4.50;;;;;;;;;;5042029;28;20044;-71
2022/04/20 15:09:55;;;;;;;7.55;4.60;;;;;;;;;;5045824;28;20039;-71
2022/04/20 15:12:21;;;;;;;9.48;4.50;;;;;;;;;;5050859;28;20095;-71
2022/04/20 15:14:47;;;;;;;13.32;5.20;;;;;;;;;;5042299;28;20167;-71
2022/04/20 15:17:13;;;;;;;8.68;5.10;;;;;;;;;;5040118;28;20583;-71
2022/04/20 15:19:38;;;;;;;12.55;6.32;;;;;;;;;;5033568;28;20037;-71
2022/04/20 15:22:05;;;;;;;11.75;5.63;;;;;;;;;;5041599;28;20044;-71
2022/04/20 15:24:30;;;;;;;8.98;5.55;;;;;;;;;;5042992;28;20040;-71
2022/04/20 15:26:56;;;;;;;11.73;5.40;;;;;;;;;;5044226;28;20036;-71
2022/04/20 15:29:22;;;;;;;9.95;5.18;;;;;;;;;;5044431;28;20041;-71